»·PEaware :: UAL2016 KSAN-KSFO

UAL2016 :: KSAN-KSFO

FLIGHT INFORMATION

Flight Status: Arrived
Operator:
United Airlines
More flights by this operator :: More flights under this callsign
Pilot: Alfredo R. (12181)
Aircraft: BOEING 737-800
(B738)
More flights by this aircraft type
Origin: KSAN San Diego Intl-Lindbergh
United States
Destination: KSFO San Francisco Intl
United States
More flights between these airports :: More routes between these airports
Route: PADRZ1 IKAYE RIZIN SPLNT STOKD SERFR SERFR2
File this flight plan on PilotEdge
Remarks:
Altitude:
(Current/Filed)
38,000ft
Speed:
(Current/Filed)
470kts
Departed: 27-Sep-17 06:29 PM
Arrived: 27-Sep-17 07:58 PM
Distance/Time
Traveled:
388nm/1:29
Distance/Time
To Go:
Arrived

Flight Plot

Page will automatically refresh every two minutes.

Flight plan parsing failed; only flown route is shown


Map Options




Map Legend


Flown Route
Filed Route
Departure Airport
Arrival Airport
Navaid (VOR, NDB)
Fix

Horizontal Profiles

Position Reports

Time Latitude Longitude Heading Altitude Ground
Speed
27-Sep-17 17:54 32.733076 -117.200636 280 24ft 0kts
27-Sep-17 17:55 32.733076 -117.200636 280 24ft 0kts
27-Sep-17 17:56 32.733076 -117.200636 280 24ft 0kts
27-Sep-17 17:57 32.733076 -117.200636 280 24ft 0kts
27-Sep-17 17:58 32.733076 -117.200636 280 24ft 0kts
27-Sep-17 17:59 32.733076 -117.200636 280 24ft 0kts
27-Sep-17 18:00 32.733076 -117.200636 280 24ft 0kts
27-Sep-17 18:01 32.733076 -117.200636 280 24ft 0kts
27-Sep-17 18:02 32.733076 -117.200636 280 24ft 0kts
27-Sep-17 18:03 32.733076 -117.200636 280 24ft 0kts
27-Sep-17 18:04 32.733076 -117.200636 280 24ft 0kts
27-Sep-17 18:05 32.733076 -117.200636 280 24ft 0kts
27-Sep-17 18:06 32.733076 -117.200636 280 24ft 0kts
27-Sep-17 18:07 32.733076 -117.200636 280 24ft 0kts
27-Sep-17 18:08 32.733076 -117.200636 280 24ft 0kts
27-Sep-17 18:09 32.733076 -117.200636 280 24ft 0kts
27-Sep-17 18:10 32.733057 -117.200523 280 25ft 0kts
27-Sep-17 18:11 32.732977 -117.200071 298 24ft 1kts
27-Sep-17 18:12 32.732852 -117.199956 10 24ft 0kts
27-Sep-17 18:13 32.732852 -117.199956 10 24ft 0kts
27-Sep-17 18:14 32.732852 -117.199956 10 24ft 0kts
27-Sep-17 18:15 32.732852 -117.199956 10 24ft 0kts
27-Sep-17 18:16 32.732852 -117.199956 10 24ft 0kts
27-Sep-17 18:17 32.732852 -117.199956 10 24ft 0kts
27-Sep-17 18:18 32.733065 -117.199908 10 25ft 2kts
27-Sep-17 18:19 32.734002 -117.199689 13 25ft 0kts
27-Sep-17 18:20 32.734298 -117.199590 16 24ft 0kts
27-Sep-17 18:21 32.734298 -117.199590 16 24ft 0kts
27-Sep-17 18:22 32.734298 -117.199590 16 24ft 0kts
27-Sep-17 18:23 32.734330 -117.199579 16 24ft 0kts
27-Sep-17 18:24 32.734772 -117.199081 90 25ft 2kts
27-Sep-17 18:25 32.734406 -117.197457 106 24ft 8kts
27-Sep-17 18:26 32.733505 -117.193702 105 25ft 15kts
27-Sep-17 18:27 32.732264 -117.188544 105 24ft 17kts
27-Sep-17 18:28 32.730918 -117.183004 104 24ft 18kts
27-Sep-17 18:29 32.729659 -117.177870 106 24ft 12kts
27-Sep-17 18:30 32.729524 -117.176685 74 24ft 0kts
27-Sep-17 18:31 32.729765 -117.175954 48 24ft 4kts
27-Sep-17 18:32 32.730439 -117.176817 285 24ft 9kts
27-Sep-17 18:33 32.731764 -117.182280 286 25ft 42kts
27-Sep-17 18:34 32.742246 -117.222044 294 909ft 167kts
27-Sep-17 18:35 32.772061 -117.268844 312 2966ft 192kts
27-Sep-17 18:36 32.797628 -117.312385 307 4421ft 223kts
27-Sep-17 18:37 32.838511 -117.378255 309 6274ft 275kts
27-Sep-17 18:38 32.885979 -117.452199 310 9003ft 294kts
27-Sep-17 18:39 32.946606 -117.546385 310 11461ft 336kts
27-Sep-17 18:40 32.992470 -117.618467 310 14050ft 333kts
27-Sep-17 18:41 33.048820 -117.706842 312 16920ft 340kts
27-Sep-17 18:42 33.116814 -117.783754 320 19732ft 348kts
27-Sep-17 18:43 33.189136 -117.860054 314 22213ft 361kts
27-Sep-17 18:44 33.257761 -117.948201 314 24503ft 373kts
27-Sep-17 18:45 33.328286 -118.037582 314 26719ft 379kts
27-Sep-17 18:46 33.398929 -118.127048 313 29221ft 369kts
27-Sep-17 18:47 33.468939 -118.215785 313 31163ft 364kts
27-Sep-17 18:48 33.538341 -118.303617 313 32648ft 365kts
27-Sep-17 18:49 33.607589 -118.391409 313 34071ft 362kts
27-Sep-17 18:50 33.676288 -118.478705 314 35257ft 360kts
27-Sep-17 18:51 33.744629 -118.565596 313 36273ft 359kts
27-Sep-17 18:52 33.811164 -118.650479 312 37199ft 356kts
27-Sep-17 18:53 33.877733 -118.735506 313 37881ft 357kts
27-Sep-17 18:54 33.946100 -118.822664 313 37948ft 366kts
27-Sep-17 18:55 34.015356 -118.911147 313 37973ft 376kts
27-Sep-17 18:56 34.087981 -119.004153 313 37955ft 389kts
27-Sep-17 18:57 34.160804 -119.097642 313 37959ft 402kts
27-Sep-17 18:58 34.238365 -119.197169 313 37962ft 416kts
27-Sep-17 18:59 34.317247 -119.298724 313 37956ft 419kts
27-Sep-17 19:00 34.396612 -119.400946 314 37941ft 421kts
27-Sep-17 19:01 34.476763 -119.504514 314 37927ft 422kts
27-Sep-17 19:02 34.556454 -119.607529 314 37921ft 421kts
27-Sep-17 19:03 34.636556 -119.711397 313 37927ft 421kts
27-Sep-17 19:04 34.716583 -119.815164 313 37988ft 426kts
27-Sep-17 19:05 34.797089 -119.919734 313 37979ft 425kts
27-Sep-17 19:06 34.877694 -120.024732 313 37982ft 426kts
27-Sep-17 19:07 34.957614 -120.129193 313 37992ft 426kts
27-Sep-17 19:08 35.035642 -120.231291 313 37973ft 410kts
27-Sep-17 19:09 35.113464 -120.333067 313 37996ft 417kts
27-Sep-17 19:10 35.191947 -120.435937 313 37979ft 416kts
27-Sep-17 19:11 35.270636 -120.539274 314 37986ft 415kts
27-Sep-17 19:12 35.348492 -120.641654 314 37984ft 414kts
27-Sep-17 19:13 35.425744 -120.743329 313 37983ft 414kts
27-Sep-17 19:14 35.509124 -120.841515 321 37983ft 418kts
27-Sep-17 19:15 35.600561 -120.928200 322 37983ft 417kts
27-Sep-17 19:16 35.692283 -121.014092 322 37981ft 417kts
27-Sep-17 19:17 35.782617 -121.098650 323 36845ft 405kts
27-Sep-17 19:18 35.869333 -121.179871 323 35202ft 390kts
27-Sep-17 19:19 35.956796 -121.261620 324 33605ft 399kts
27-Sep-17 19:20 36.044105 -121.343063 325 31616ft 398kts
27-Sep-17 19:21 36.135831 -121.418186 329 29690ft 402kts
27-Sep-17 19:22 36.228946 -121.491349 329 27771ft 407kts
27-Sep-17 19:23 36.320840 -121.563440 329 25985ft 390kts
27-Sep-17 19:24 36.409879 -121.633210 329 24218ft 383kts
27-Sep-17 19:25 36.497529 -121.701911 329 22433ft 373kts
27-Sep-17 19:26 36.583801 -121.770102 329 20676ft 368kts
27-Sep-17 19:27 36.669261 -121.837648 329 18877ft 361kts
27-Sep-17 19:28 36.754967 -121.894426 343 17088ft 351kts
27-Sep-17 19:29 36.848205 -121.924108 347 15460ft 344kts
27-Sep-17 19:30 36.939901 -121.951007 345 13917ft 332kts
27-Sep-17 19:31 37.025550 -121.982461 343 12370ft 322kts
27-Sep-17 19:32 37.110350 -122.015265 343 10877ft 319kts
27-Sep-17 19:33 37.187301 -122.045274 342 9366ft 286kts
27-Sep-17 19:34 37.257302 -122.072654 343 8177ft 273kts
27-Sep-17 19:35 37.325524 -122.099416 343 7038ft 267kts
27-Sep-17 19:36 37.390253 -122.124868 343 5887ft 234kts
27-Sep-17 19:37 37.450009 -122.148193 346 5054ft 219kts
27-Sep-17 19:38 37.504728 -122.164939 343 3920ft 192kts
27-Sep-17 19:39 37.540361 -122.208236 307 3092ft 179kts
27-Sep-17 19:40 37.568445 -122.257259 301 3063ft 171kts
27-Sep-17 19:41 37.592670 -122.309688 297 1988ft 185kts
27-Sep-17 19:42 37.615720 -122.367878 298 53ft 171kts
27-Sep-17 19:43 37.636727 -122.415065 300 1300ft 173kts
27-Sep-17 19:44 37.664513 -122.469143 306 3075ft 190kts
27-Sep-17 19:45 37.690419 -122.532344 285 3790ft 211kts
27-Sep-17 19:46 37.702876 -122.608687 282 4026ft 228kts
27-Sep-17 19:47 37.709144 -122.688914 248 3916ft 239kts
27-Sep-17 19:48 37.657516 -122.716438 142 3501ft 228kts
27-Sep-17 19:49 37.616134 -122.657426 128 4024ft 226kts
27-Sep-17 19:50 37.577620 -122.593021 112 4039ft 233kts
27-Sep-17 19:51 37.552125 -122.519396 112 4035ft 229kts
27-Sep-17 19:52 37.525773 -122.446380 112 4014ft 228kts
27-Sep-17 19:53 37.499609 -122.373469 114 4033ft 231kts
27-Sep-17 19:54 37.471983 -122.302571 115 4038ft 226kts
27-Sep-17 19:55 37.445759 -122.231435 90 3952ft 230kts
27-Sep-17 19:56 37.470138 -122.184142 21 3542ft 221kts
27-Sep-17 19:57 37.508082 -122.181211 333 3018ft 193kts
27-Sep-17 19:58 37.544747 -122.217152 314 3036ft 193kts
27-Sep-17 19:59 37.573077 -122.266424 298 2386ft 183kts
27-Sep-17 20:00 37.595549 -122.320799 301 1111ft 167kts
27-Sep-17 20:01 37.615127 -122.366724 298 21ft 124kts
27-Sep-17 20:02 37.618949 -122.378209 269 21ft 8kts
27-Sep-17 20:03 37.619209 -122.380956 295 21ft 11kts
27-Sep-17 20:04 37.620944 -122.385078 298 20ft 15kts
27-Sep-17 20:05 37.622613 -122.389149 280 20ft 10kts
27-Sep-17 20:06 37.621747 -122.391396 205 20ft 2kts
27-Sep-17 20:07 37.620269 -122.391743 128 21ft 7kts
27-Sep-17 20:08 37.619811 -122.389669 36 21ft 4kts
27-Sep-17 20:09 37.620185 -122.389393 26 21ft 0kts
27-Sep-17 20:10 37.620185 -122.389393 26 21ft 0kts

Navigation Log

Ident Type
Flight plan parsing failed, navigation log unavailable